Time,TemperatureF,DewpointF,PressureIn,WindDirection,WindDirectionDegrees,WindSpeedMPH,WindSpeedGustMPH,Humidity,HourlyPrecipIn,Conditions,Clouds,dailyrainin,SoftwareType,DateUTC
2013-07-09 00:11:00,63.2,59.0,29.88,ENE,59,6.0,6.0,87,0.00,,,0.00,weatherlink.com 1.10,2013-07-09 06:11:00,
2013-07-09 00:26:00,62.6,59.0,29.88,East,96,2.0,4.0,87,0.00,,,0.00,weatherlink.com 1.10,2013-07-09 06:26:00,
2013-07-09 00:41:00,62.4,59.0,29.88,NE,51,3.0,8.0,88,0.00,,,0.00,weatherlink.com 1.10,2013-07-09 06:41:00,
2013-07-09 00:56:00,62.0,59.0,29.88,NE,41,3.0,5.0,88,0.00,,,0.00,weatherlink.com 1.10,2013-07-09 06:56:00,
2013-07-09 01:11:00,61.7,58.0,29.89,NNE,20,0.0,3.0,88,0.00,,,0.00,weatherlink.com 1.10,2013-07-09 07:11:00,
2013-07-09 01:26:00,61.6,58.0,29.89,West,273,0.0,1.0,89,0.00,,,0.00,weatherlink.com 1.10,2013-07-09 07:26:00,
2013-07-09 01:41:00,61.9,58.0,29.89,WSW,242,0.0,1.0,88,0.00,,,0.00,weatherlink.com 1.10,2013-07-09 07:41:00,
2013-07-09 01:56:00,61.5,59.0,29.89,SW,218,0.0,1.0,90,0.00,,,0.00,weatherlink.com 1.10,2013-07-09 07:56:00,
2013-07-09 02:11:00,61.2,59.0,29.90,SSW,200,1.0,2.0,92,0.00,,,0.00,weatherlink.com 1.10,2013-07-09 08:11:00,
2013-07-09 02:26:00,61.1,59.0,29.90,SW,229,0.0,1.0,93,0.00,,,0.00,weatherlink.com 1.10,2013-07-09 08:26:00,
2013-07-09 02:41:00,60.9,59.0,29.91,South,179,0.0,1.0,93,0.00,,,0.00,weatherlink.com 1.10,2013-07-09 08:41:00,
2013-07-09 02:56:00,61.1,59.0,29.91,South,186,0.0,0.0,93,0.00,,,0.00,weatherlink.com 1.10,2013-07-09 08:56:00,
2013-07-09 03:11:00,61.1,59.0,29.90,South,186,1.0,1.0,94,0.00,,,0.00,weatherlink.com 1.10,2013-07-09 09:11:00,
2013-07-09 03:26:00,60.2,59.0,29.90,SSW,211,0.0,1.0,95,0.00,,,0.00,weatherlink.com 1.10,2013-07-09 09:26:00,
2013-07-09 03:41:00,60.0,58.0,29.91,WSW,240,1.0,1.0,94,0.00,,,0.00,weatherlink.com 1.10,2013-07-09 09:41:00,
2013-07-09 03:56:00,59.2,58.0,29.91,WSW,250,0.0,1.0,95,0.00,,,0.00,weatherlink.com 1.10,2013-07-09 09:56:00,
2013-07-09 04:12:00,59.7,59.0,29.91,West,268,1.0,4.0,96,0.00,,,0.00,weatherlink.com 1.10,2013-07-09 10:12:00,
2013-07-09 04:26:00,59.3,58.0,29.91,WNW,291,0.0,1.0,94,0.00,,,0.00,weatherlink.com 1.10,2013-07-09 10:26:00,
2013-07-09 04:41:00,59.1,58.0,29.92,West,261,1.0,2.0,96,0.00,,,0.00,weatherlink.com 1.10,2013-07-09 10:41:00,
2013-07-09 04:56:00,59.1,58.0,29.92,WSW,248,0.0,1.0,95,0.00,,,0.00,weatherlink.com 1.10,2013-07-09 10:56:00,
2013-07-09 05:11:00,58.7,58.0,29.93,WSW,250,0.0,1.0,97,0.00,,,0.00,weatherlink.com 1.10,2013-07-09 11:11:00,
2013-07-09 05:26:00,58.5,58.0,29.93,South,176,0.0,1.0,97,0.00,,,0.00,weatherlink.com 1.10,2013-07-09 11:26:00,
2013-07-09 05:41:00,58.7,58.0,29.94,NNE,13,0.0,1.0,97,0.00,,,0.00,weatherlink.com 1.10,2013-07-09 11:41:00,
2013-07-09 05:56:00,58.9,58.0,29.94,SW,219,0.0,0.0,97,0.00,,,0.00,weatherlink.com 1.10,2013-07-09 11:56:00,
2013-07-09 06:11:00,58.5,57.0,29.94,West,265,0.0,1.0,96,0.00,,,0.00,weatherlink.com 1.10,2013-07-09 12:11:00,
2013-07-09 06:26:00,59.5,59.0,29.95,NE,38,0.0,2.0,97,0.00,,,0.00,weatherlink.com 1.10,2013-07-09 12:26:00,
2013-07-09 06:41:00,61.2,60.0,29.96,North,10,0.0,1.0,94,0.00,,,0.00,weatherlink.com 1.10,2013-07-09 12:41:00,
2013-07-09 06:56:00,62.2,60.0,29.96,South,183,1.0,2.0,92,0.01,,,0.01,weatherlink.com 1.10,2013-07-09 12:56:00,
2013-07-09 07:11:00,62.8,60.0,29.97,West,281,1.0,3.0,91,0.01,,,0.01,weatherlink.com 1.10,2013-07-09 13:11:00,
2013-07-09 07:27:00,62.2,60.0,29.98,West,265,0.0,4.0,91,0.01,,,0.01,weatherlink.com 1.10,2013-07-09 13:27:00,
2013-07-09 07:42:00,62.9,60.0,29.98,SW,234,1.0,3.0,90,0.01,,,0.01,weatherlink.com 1.10,2013-07-09 13:42:00,
2013-07-09 07:57:00,63.3,60.0,29.98,West,274,0.0,2.0,89,0.00,,,0.01,weatherlink.com 1.10,2013-07-09 13:57:00,
2013-07-09 08:12:00,64.4,61.0,29.99,SSE,165,1.0,2.0,87,0.00,,,0.01,weatherlink.com 1.10,2013-07-09 14:12:00,
2013-07-09 08:27:00,66.2,61.0,29.99,ENE,67,1.0,3.0,83,0.00,,,0.01,weatherlink.com 1.10,2013-07-09 14:27:00,
2013-07-09 08:42:00,66.3,60.0,29.99,ESE,120,2.0,4.0,81,0.00,,,0.01,weatherlink.com 1.10,2013-07-09 14:42:00,
2013-07-09 08:57:00,68.0,61.0,29.99,SE,140,1.0,3.0,77,0.00,,,0.01,weatherlink.com 1.10,2013-07-09 14:57:00,
2013-07-09 09:12:00,69.2,62.0,30.00,NNW,334,1.0,2.0,77,0.00,,,0.01,weatherlink.com 1.10,2013-07-09 15:12:00,
2013-07-09 09:27:00,69.0,59.0,30.00,NNE,33,1.0,6.0,71,0.00,,,0.01,weatherlink.com 1.10,2013-07-09 15:27:00,
2013-07-09 09:42:00,69.4,60.0,30.00,NNE,28,6.0,8.0,71,0.00,,,0.01,weatherlink.com 1.10,2013-07-09 15:42:00,
2013-07-09 09:57:00,70.3,60.0,30.00,ENE,60,1.0,7.0,69,0.00,,,0.01,weatherlink.com 1.10,2013-07-09 15:57:00,
2013-07-09 10:12:00,70.7,60.0,30.00,East,92,4.0,10.0,70,0.00,,,0.01,weatherlink.com 1.10,2013-07-09 16:12:00,
2013-07-09 10:27:00,71.2,59.0,30.00,NNE,32,4.0,9.0,66,0.00,,,0.01,weatherlink.com 1.10,2013-07-09 16:27:00,
2013-07-09 10:42:00,72.1,56.0,30.00,East,87,9.0,9.0,57,0.00,,,0.01,weatherlink.com 1.10,2013-07-09 16:42:00,
2013-07-09 10:57:00,72.3,54.0,30.01,NNE,29,2.0,12.0,52,0.00,,,0.01,weatherlink.com 1.10,2013-07-09 16:57:00,
2013-07-09 11:12:00,72.6,56.0,30.01,ENE,74,7.0,13.0,56,0.00,,,0.01,weatherlink.com 1.10,2013-07-09 17:12:00,
2013-07-09 11:27:00,72.4,54.0,30.01,ENE,73,10.0,14.0,53,0.00,,,0.01,weatherlink.com 1.10,2013-07-09 17:27:00,
2013-07-09 11:42:00,72.8,54.0,30.01,ENE,65,6.0,12.0,52,0.00,,,0.01,weatherlink.com 1.10,2013-07-09 17:42:00,
2013-07-09 11:57:00,74.1,54.0,30.01,NE,37,11.0,13.0,50,0.00,,,0.01,weatherlink.com 1.10,2013-07-09 17:57:00,
2013-07-09 12:12:00,73.8,52.0,30.01,NNE,25,8.0,11.0,47,0.00,,,0.01,weatherlink.com 1.10,2013-07-09 18:12:00,
2013-07-09 12:27:00,74.8,53.0,30.00,NE,53,3.0,9.0,47,0.00,,,0.01,weatherlink.com 1.10,2013-07-09 18:27:00,
2013-07-09 12:42:00,75.3,57.0,30.00,NNW,342,6.0,10.0,53,0.00,,,0.01,weatherlink.com 1.10,2013-07-09 18:42:00,
2013-07-09 12:57:00,75.5,53.0,30.00,NNW,333,5.0,11.0,46,0.00,,,0.01,weatherlink.com 1.10,2013-07-09 18:57:00,
2013-07-09 13:12:00,76.1,55.0,30.00,ENE,76,1.0,8.0,48,0.00,,,0.01,weatherlink.com 1.10,2013-07-09 19:12:00,
2013-07-09 13:27:00,76.0,52.0,30.00,ENE,57,3.0,12.0,44,0.00,,,0.01,weatherlink.com 1.10,2013-07-09 19:27:00,
2013-07-09 13:42:00,76.6,54.0,30.00,NE,48,9.0,11.0,45,0.00,,,0.01,weatherlink.com 1.10,2013-07-09 19:42:00,
2013-07-09 13:57:00,76.5,54.0,30.00,NNE,18,6.0,12.0,45,0.00,,,0.01,weatherlink.com 1.10,2013-07-09 19:57:00,
2013-07-09 14:12:00,77.1,53.0,30.00,WSW,250,4.0,11.0,43,0.00,,,0.01,weatherlink.com 1.10,2013-07-09 20:12:00,
2013-07-09 14:27:00,77.5,51.0,30.00,NE,37,2.0,12.0,40,0.00,,,0.01,weatherlink.com 1.10,2013-07-09 20:27:00,
2013-07-09 14:42:00,78.1,52.0,30.00,NNE,33,3.0,4.0,40,0.00,,,0.01,weatherlink.com 1.10,2013-07-09 20:42:00,
2013-07-09 14:58:00,78.1,56.0,30.00,NNW,328,9.0,9.0,46,0.00,,,0.01,weatherlink.com 1.10,2013-07-09 20:58:00,
2013-07-09 15:13:00,78.1,52.0,29.99,ENE,63,6.0,9.0,41,0.00,,,0.01,weatherlink.com 1.10,2013-07-09 21:13:00,
2013-07-09 15:28:00,78.0,52.0,29.99,NNE,32,5.0,11.0,40,0.00,,,0.01,weatherlink.com 1.10,2013-07-09 21:28:00,
2013-07-09 15:43:00,78.1,54.0,29.99,ENE,67,3.0,10.0,43,0.00,,,0.01,weatherlink.com 1.10,2013-07-09 21:43:00,
2013-07-09 15:58:00,77.9,51.0,29.98,NE,51,5.0,11.0,39,0.00,,,0.01,weatherlink.com 1.10,2013-07-09 21:58:00,
2013-07-09 16:13:00,79.1,51.0,29.98,ESE,103,0.0,6.0,38,0.00,,,0.01,weatherlink.com 1.10,2013-07-09 22:13:00,
2013-07-09 16:28:00,78.8,52.0,29.98,ENE,67,6.0,12.0,39,0.00,,,0.01,weatherlink.com 1.10,2013-07-09 22:28:00,
2013-07-09 16:43:00,78.9,53.0,29.98,East,85,5.0,12.0,41,0.00,,,0.01,weatherlink.com 1.10,2013-07-09 22:43:00,
2013-07-09 16:58:00,79.0,51.0,29.98,ENE,74,10.0,10.0,37,0.00,,,0.01,weatherlink.com 1.10,2013-07-09 22:58:00,
2013-07-09 17:13:00,79.1,50.0,29.98,ESE,111,6.0,9.0,36,0.00,,,0.01,weatherlink.com 1.10,2013-07-09 23:13:00,
2013-07-09 17:28:00,79.4,51.0,29.98,ENE,58,11.0,13.0,37,0.00,,,0.01,weatherlink.com 1.10,2013-07-09 23:28:00,
2013-07-09 17:43:00,79.4,52.0,29.98,NE,41,4.0,11.0,39,0.00,,,0.01,weatherlink.com 1.10,2013-07-09 23:43:00,
2013-07-09 17:58:00,79.5,52.0,29.97,East,94,8.0,9.0,38,0.00,,,0.01,weatherlink.com 1.10,2013-07-09 23:58:00,
2013-07-09 18:13:00,79.2,50.0,29.97,ENE,65,5.0,8.0,36,0.00,,,0.01,weatherlink.com 1.10,2013-07-10 00:13:00,
2013-07-09 18:28:00,79.4,52.0,29.97,ENE,63,1.0,5.0,39,0.00,,,0.01,weatherlink.com 1.10,2013-07-10 00:28:00,
2013-07-09 18:43:00,78.9,52.0,29.97,ESE,112,2.0,10.0,39,0.00,,,0.01,weatherlink.com 1.10,2013-07-10 00:43:00,
2013-07-09 18:58:00,78.6,52.0,29.97,ESE,108,4.0,8.0,39,0.00,,,0.01,weatherlink.com 1.10,2013-07-10 00:58:00,
2013-07-09 19:13:00,78.4,53.0,29.97,ENE,76,3.0,7.0,41,0.00,,,0.01,weatherlink.com 1.10,2013-07-10 01:13:00,
2013-07-09 19:28:00,77.7,53.0,29.97,ENE,63,4.0,10.0,43,0.00,,,0.01,weatherlink.com 1.10,2013-07-10 01:28:00,
2013-07-09 19:43:00,77.2,54.0,29.97,NE,56,2.0,7.0,44,0.00,,,0.01,weatherlink.com 1.10,2013-07-10 01:43:00,
2013-07-09 19:58:00,76.4,54.0,29.97,ENE,66,5.0,7.0,46,0.00,,,0.01,weatherlink.com 1.10,2013-07-10 01:58:00,
2013-07-09 20:13:00,75.5,55.0,29.97,ENE,59,3.0,7.0,49,0.00,,,0.01,weatherlink.com 1.10,2013-07-10 02:13:00,
2013-07-09 20:28:00,74.4,54.0,29.97,East,84,2.0,6.0,50,0.00,,,0.01,weatherlink.com 1.10,2013-07-10 02:28:00,
2013-07-09 20:43:00,73.1,55.0,29.97,ENE,72,3.0,4.0,53,0.00,,,0.01,weatherlink.com 1.10,2013-07-10 02:43:00,
2013-07-09 20:58:00,71.8,55.0,29.97,East,84,3.0,4.0,55,0.00,,,0.01,weatherlink.com 1.10,2013-07-10 02:58:00,
2013-07-09 21:13:00,70.2,56.0,29.97,East,91,3.0,3.0,61,0.00,,,0.01,weatherlink.com 1.10,2013-07-10 03:13:00,
2013-07-09 21:28:00,68.9,56.0,29.98,East,82,1.0,3.0,64,0.00,,,0.01,weatherlink.com 1.10,2013-07-10 03:28:00,
2013-07-09 21:43:00,68.0,57.0,29.98,East,100,1.0,3.0,67,0.00,,,0.01,weatherlink.com 1.10,2013-07-10 03:43:00,
2013-07-09 21:58:00,66.8,57.0,29.98,ESE,107,1.0,2.0,70,0.00,,,0.01,weatherlink.com 1.10,2013-07-10 03:58:00,
2013-07-09 22:13:00,66.7,56.0,29.98,ESE,122,0.0,3.0,69,0.00,,,0.01,weatherlink.com 1.10,2013-07-10 04:13:00,
2013-07-09 22:28:00,66.0,56.0,29.98,SE,135,0.0,5.0,71,0.00,,,0.01,weatherlink.com 1.10,2013-07-10 04:28:00,
2013-07-09 22:43:00,64.9,56.0,29.97,East,93,3.0,3.0,72,0.00,,,0.01,weatherlink.com 1.10,2013-07-10 04:43:00,
2013-07-09 22:58:00,64.7,56.0,29.98,SE,143,0.0,3.0,73,0.00,,,0.01,weatherlink.com 1.10,2013-07-10 04:58:00,
2013-07-09 23:13:00,63.8,56.0,29.98,SE,142,2.0,2.0,76,0.00,,,0.01,weatherlink.com 1.10,2013-07-10 05:13:00,
2013-07-09 23:28:00,64.1,56.0,29.98,SE,145,1.0,3.0,74,0.00,,,0.01,weatherlink.com 1.10,2013-07-10 05:28:00,
2013-07-09 23:43:00,63.4,56.0,29.98,SE,132,1.0,2.0,77,0.00,,,0.01,weatherlink.com 1.10,2013-07-10 05:43:00,
2013-07-09 23:58:00,62.5,56.0,29.98,ESE,102,0.0,1.0,78,0.00,,,0.01,weatherlink.com 1.10,2013-07-10 05:58:00,